McBride, Missouri
Current Conditions -  °F | °C
As of 5:55 AM on Wednesday 28 Jan 2015 (Local Time) from KSAR Reporting Station
Clear Clear  
Wind Chill: -6°   Ceiling: Unl
Heat Index: -3°   Visibility: 7mi
Dew Point: -4°   Wind: 5mph
Humidity: 94%   Direction: 140°SE
Pressure: 30.27"   Gusts: NA
Location:  37.83°N, 89.84°W
Report Text: KSAR 281155Z AUTO 14004KT 7SM CLR M03/M03 A3027 RMK AO2 T10271035 11022 21037
Loading
Personal Weather Stations






























Interactive Weather Map New forecast layout! Learn more

10-Day Weather Forecast

Advertisements
Track Severe Weather on mobile